Sutton, WV

4:44 PM EDT on July 29, 2016 (GMT -0400)
Grapevine Circle | | Change Station

Elev 1270 ft 38.66 °N, 80.74 °W | Updated 4 seconds ago

Scattered Clouds
Scattered Clouds
79.7 °F
Feels Like 83 °F
N
0.0
Wind Variable Wind from South
Gusts 1.0 mph

Today
High -- | Low -- °F
--% Chance of Precip.
Yesterday
High -- | Low -- °F
Precip. -- in
Pressure 29.97 in
Visibility 10.0 miles
Clouds Few 3700 ft
Scattered Clouds 7500 ft
Heat Index 83 °F
Dew Point 71 °F
Humidity 74%
Rainfall 0.11 in
Snow Depth Not available.
6:21 AM 8:35 PM
Waning Crescent, 19% visible
METAR KEKN 291951Z AUTO VRB03KT 10SM FEW037 SCT075 27/17 A3001 RMK AO2 SLP149 T02720172 TSNO
Pressure 29.97 in
Visibility 10.0 miles
Clouds Few 3700 ft
Scattered Clouds 7500 ft
Heat Index 83 °F
Dew Point 71 °F
Humidity 74%
Rainfall 0.11 in
Snow Depth Not available.
6:21 AM 8:35 PM
Waning Crescent, 19% visible
METAR KEKN 291951Z AUTO VRB03KT 10SM FEW037 SCT075 27/17 A3001 RMK AO2 SLP149 T02720172 TSNO

10-Day Weather Forecast

Almanac

Astronomy

Jul. 29, 2016 Rise Set
Actual Time
Civil Twilight
Nautical Twilight
Astronomical Twilight
Moon
Length of Visible Light
Length of Day
Tomorrow will be .
, % of the Moon is Illuminated

Today's Extremes

State Highs State Lows

Community

WunderPhotos

Upload Photos

1,928,411 photos uploaded!

WunderBlog® & News

Nearby

Air Quality

  Air Quality AQ Index Pollutant
Not available.

Snow Depth

Station Depth Elevation

Earthquake Activity

City Distance Mag. Time & Date
Minimum magnitude displayed is 2.5.

Coastal Water Temperatures

Place Temperature

Stations

Nearby Weather Stations

Station Location Temp. Windchill Dew Point Humidity Wind Precip. Elev Updated Type
                   

Watches & Warnings

There are currently no watches in effect.